SKVP/VUP METAR and TAF weather

Enter ICAO airport designator
Station Type Date Time Source
SKVP METAR 2019/09/20 20:00 UTC NOAA

SKVP 202000Z 21008KT 9999 VCSH SCT020TCU 32/22 A2987 RMK TCU VCSH/W/NW


Station Type Date Time Source
SKVP Decoded METAR 2019/09/20 20:00 UTC NOAA

Valledupar / Alfonso Lopez, Colombia (SKVP) 10-26N 073-15W
Sep 20, 2019 - 04:00 PM EDT / 2019.09.20 2000 UTC
Wind: from the SSW (210 degrees) at 9 MPH (8 KT):0
Visibility: greater than 7 mile(s):0
Sky conditions: partly cloudy
Weather: showers in the vicinity; Towering cumulus clouds observed
Temperature: 89 F (32 C)
Heat index: 95.0 F (35.0 C):1
Dew Point: 71 F (22 C)
Relative Humidity: 55%
Pressure (altimeter): 29.87 in. Hg (1011 hPa)
ob: SKVP 202000Z 21008KT 9999 VCSH SCT020TCU 32/22 A2987 RMK TCU VCSH/W/NW
cycle: 20

Station Type Date Time Source
SKVP TAF UTC NOAA

Error!

Example: see airport list